createdAt,value
2023-01-26T02:55:49.118Z,5.80
2023-01-26T02:58:18.029Z,6.30
2023-01-26T03:00:44.993Z,14.10
2023-01-26T03:03:16.120Z,10.10
2023-01-26T03:05:44.245Z,13.90
2023-01-26T03:08:11.885Z,13.70
2023-01-26T03:10:39.736Z,8.60
2023-01-26T03:13:07.019Z,15.50
2023-01-26T03:16:08.444Z,8.50
2023-01-26T03:18:55.040Z,15.00
2023-01-26T03:21:42.085Z,14.40
2023-01-26T03:24:30.449Z,17.20
2023-01-26T03:27:17.382Z,12.30
2023-01-26T03:29:45.214Z,16.90
2023-01-26T03:32:14.946Z,11.50
2023-01-26T03:34:42.658Z,14.40
2023-01-26T03:37:09.667Z,20.60
2023-01-26T03:40:03.176Z,8.30
2023-01-26T03:42:48.819Z,10.30
2023-01-26T03:45:34.663Z,9.30
2023-01-26T03:48:29.979Z,12.50
2023-01-26T03:51:15.866Z,27.70
2023-01-26T04:03:16.257Z,19.40
2023-01-26T04:06:16.352Z,6.00
2023-01-26T04:08:47.642Z,11.00
2023-01-26T04:11:15.529Z,12.60
2023-01-26T04:14:02.225Z,13.50
2023-01-26T04:16:50.787Z,19.70
2023-01-26T04:19:36.683Z,10.80
2023-01-26T04:22:04.058Z,11.80
2023-01-26T04:24:35.147Z,14.00
2023-01-26T04:27:02.216Z,13.80
2023-01-26T04:29:36.298Z,20.60
2023-01-26T04:32:03.693Z,12.40
2023-01-26T04:34:33.155Z,14.00
2023-01-26T04:37:01.211Z,29.40
2023-01-26T04:39:38.477Z,19.00
2023-01-26T04:42:06.199Z,15.20
2023-01-26T04:44:33.265Z,18.10
2023-01-26T04:47:00.831Z,22.00
2023-01-26T04:49:28.158Z,19.60
2023-01-26T04:51:55.640Z,17.60
2023-01-26T05:26:39.746Z,21.00
2023-01-26T05:29:12.917Z,23.40
2023-01-26T05:31:40.659Z,27.60
2023-01-26T05:34:07.589Z,35.00
2023-01-26T05:36:36.299Z,12.30
2023-01-26T05:39:03.326Z,14.30
2023-01-26T05:41:34.605Z,26.00
2023-01-26T05:44:19.401Z,24.70
2023-01-26T05:46:53.319Z,32.30
2023-01-26T05:49:20.442Z,19.30
2023-01-26T05:51:47.620Z,30.20
2023-01-26T05:54:15.211Z,30.20
2023-01-26T05:56:45.014Z,30.00
2023-01-26T05:59:12.870Z,30.40
2023-01-26T06:01:39.958Z,28.30
2023-01-26T06:04:07.464Z,28.10
2023-01-26T06:06:52.620Z,18.30
2023-01-26T06:09:27.305Z,22.40
2023-01-26T06:12:03.933Z,47.90
2023-01-26T06:14:54.979Z,35.40
2023-01-26T06:17:23.013Z,27.20
2023-01-26T06:20:00.411Z,24.00
2023-01-26T06:22:27.792Z,28.30
2023-01-26T06:24:54.680Z,35.30
2023-01-26T06:27:23.338Z,38.00
2023-01-26T06:29:51.707Z,55.90
2023-01-26T06:32:18.835Z,36.20
2023-01-26T06:34:48.772Z,53.50
2023-01-26T06:37:16.010Z,32.80
2023-01-26T06:39:45.192Z,35.40
2023-01-26T06:42:12.664Z,42.40
2023-01-26T06:44:40.536Z,46.70
2023-01-26T06:47:08.224Z,34.80
2023-01-26T06:49:41.833Z,40.70
2023-01-26T06:52:35.433Z,50.00
2023-01-26T06:55:36.198Z,46.00
2023-01-26T06:58:33.345Z,78.00
2023-01-26T07:01:06.567Z,70.00
2023-01-26T07:03:34.482Z,48.00
2023-01-26T07:06:01.690Z,54.40
2023-01-26T07:08:28.939Z,58.40
2023-01-26T07:10:55.753Z,57.70
2023-01-26T07:13:22.645Z,60.60
2023-01-26T07:15:49.942Z,62.80
2023-01-26T07:18:16.872Z,56.40
2023-01-26T07:20:43.722Z,69.10
2023-01-26T07:23:10.771Z,56.30
2023-01-26T07:25:38.772Z,50.50
2023-01-26T07:28:09.452Z,55.30
2023-01-26T07:30:36.597Z,66.40
2023-01-26T07:33:03.706Z,68.00
2023-01-26T07:35:31.160Z,51.30
2023-01-26T07:37:58.598Z,62.50
2023-01-26T07:40:25.990Z,44.40
2023-01-26T07:42:55.506Z,43.80
2023-01-26T07:45:51.221Z,52.50
2023-01-26T07:48:20.658Z,28.60
2023-01-26T07:50:48.033Z,30.90
2023-01-26T07:53:18.780Z,31.10
2023-01-26T07:55:47.201Z,14.90
2023-01-26T07:58:15.036Z,24.10
2023-01-26T08:00:41.912Z,34.10
2023-01-26T08:03:08.911Z,38.70
2023-01-26T08:05:38.089Z,18.80
2023-01-26T08:08:05.439Z,28.70
2023-01-26T08:10:32.580Z,24.80
2023-01-26T08:13:00.239Z,23.00
2023-01-26T08:15:28.315Z,24.60
2023-01-26T08:17:55.521Z,35.30
2023-01-26T08:20:22.486Z,32.60
2023-01-26T08:24:25.785Z,17.10
2023-01-26T08:26:52.849Z,28.90
2023-01-26T08:29:20.370Z,21.00
2023-01-26T08:31:47.483Z,29.70
2023-01-26T08:34:14.638Z,22.60
2023-01-26T08:36:41.853Z,19.30
2023-01-26T19:40:34.715Z,67.60
2023-01-26T19:43:02.046Z,54.50
2023-01-26T19:45:31.313Z,49.00
2023-01-26T19:47:58.724Z,54.40
2023-01-26T19:50:26.386Z,53.70
2023-01-26T19:52:53.487Z,49.50
2023-01-26T19:55:21.879Z,63.00
2023-01-26T19:57:49.510Z,62.40
2023-01-26T20:00:17.717Z,56.20
2023-01-26T20:02:47.087Z,54.00
2023-01-26T20:05:14.981Z,67.60
2023-01-26T20:07:43.011Z,74.10
2023-01-26T20:10:11.262Z,79.30
2023-01-26T20:12:39.190Z,96.40
2023-01-26T20:15:08.197Z,81.10
2023-01-26T20:17:35.807Z,77.10
2023-01-26T20:20:03.660Z,69.00
2023-01-26T20:22:33.278Z,70.10
2023-01-26T20:25:01.198Z,63.50
2023-01-26T20:27:29.778Z,55.80
2023-01-26T20:29:56.681Z,63.40
2023-01-26T20:32:25.058Z,74.30
2023-01-26T20:34:52.430Z,85.50
2023-01-26T20:37:20.908Z,87.40
2023-01-26T20:39:49.919Z,75.70
2023-01-26T20:42:18.446Z,82.40
2023-01-26T20:44:46.006Z,80.60
2023-01-26T20:47:13.414Z,75.30
2023-01-26T20:49:42.712Z,90.10
2023-01-26T20:52:09.755Z,91.20
2023-01-26T20:54:36.810Z,71.90
2023-01-26T20:57:04.359Z,75.40
2023-01-26T20:59:32.007Z,84.50
2023-01-26T21:01:59.151Z,72.40
2023-01-26T21:04:26.486Z,74.60
2023-01-26T21:06:54.793Z,81.90
2023-01-26T21:09:21.980Z,92.00
2023-01-26T21:11:49.301Z,82.80
2023-01-26T21:14:16.259Z,109.30
2023-01-26T21:16:44.042Z,118.50
2023-01-26T21:19:11.496Z,127.30
2023-01-26T21:21:38.379Z,99.30
2023-01-26T21:24:05.879Z,109.00
2023-01-26T21:26:32.929Z,105.40
2023-01-26T21:29:00.328Z,138.20
2023-01-26T21:31:30.197Z,127.90
2023-01-26T21:33:58.472Z,122.10
2023-01-26T21:36:28.578Z,119.40
2023-01-26T21:38:57.325Z,118.40
2023-01-26T21:41:52.400Z,122.80
2023-01-26T21:44:22.697Z,127.10
2023-01-26T21:46:52.757Z,120.20
2023-01-26T21:49:20.640Z,126.00
2023-01-26T21:52:06.341Z,134.20
2023-01-26T21:54:35.257Z,130.50
2023-01-26T21:57:03.996Z,124.60
2023-01-26T21:59:31.510Z,115.50
2023-01-26T22:01:58.419Z,103.10
2023-01-26T22:04:30.361Z,97.70
2023-01-26T22:06:57.503Z,97.30
2023-01-26T22:09:25.012Z,88.50
2023-01-26T22:11:52.119Z,82.80
2023-01-26T22:14:22.283Z,80.50
2023-01-26T22:19:19.811Z,83.80
2023-01-26T22:21:47.322Z,98.20
2023-01-26T22:24:14.850Z,115.00
2023-01-26T22:26:41.892Z,113.90
2023-01-26T22:29:10.823Z,138.80
2023-01-26T22:31:38.207Z,137.30
2023-01-26T22:34:05.304Z,156.20
2023-01-26T22:36:33.216Z,129.20
2023-01-26T22:39:00.632Z,118.10
2023-01-26T22:41:29.515Z,181.10
2023-01-26T22:43:58.830Z,145.80
2023-01-26T22:46:27.363Z,137.80
2023-01-26T22:48:56.627Z,107.40
2023-01-26T22:51:27.154Z,112.70
2023-01-26T22:53:55.364Z,106.80
2023-01-26T22:56:22.933Z,127.70
2023-01-26T22:58:58.012Z,114.30
2023-01-26T23:01:28.990Z,112.40
2023-01-26T23:03:57.627Z,107.10
2023-01-26T23:06:25.394Z,93.00
2023-01-26T23:08:54.299Z,86.00
2023-01-26T23:11:24.025Z,99.10
2023-01-26T23:13:52.848Z,102.60
2023-01-26T23:16:22.359Z,80.90
2023-01-26T23:18:50.320Z,92.20
2023-01-26T23:21:17.633Z,78.20
2023-01-26T23:23:44.579Z,86.90
2023-01-26T23:26:12.649Z,88.90
2023-01-26T23:28:41.808Z,86.40
2023-01-26T23:31:10.548Z,90.90
2023-01-26T23:33:38.356Z,85.40
2023-01-26T23:36:07.495Z,74.60
2023-01-26T23:38:35.296Z,67.10
2023-01-26T23:41:04.769Z,65.90
2023-01-26T23:43:32.055Z,58.30
2023-01-26T23:45:59.114Z,64.10
2023-01-26T23:48:26.228Z,68.40
2023-01-26T23:51:01.613Z,71.70
2023-01-26T23:53:30.229Z,78.20
2023-01-26T23:56:00.103Z,70.30
2023-01-26T23:58:27.579Z,83.10
